sensor_id;sensor_type;location;lat;lon;timestamp;temperature;humidity
5278;DHT22;2662;51.194;6.614;2023-01-24T00:02:09;4.00;99.90
5278;DHT22;2662;51.194;6.614;2023-01-24T00:04:36;4.10;99.90
5278;DHT22;2662;51.194;6.614;2023-01-24T00:07:02;4.20;99.90
5278;DHT22;2662;51.194;6.614;2023-01-24T00:09:29;4.10;99.90
5278;DHT22;2662;51.194;6.614;2023-01-24T00:11:56;4.00;99.90
5278;DHT22;2662;51.194;6.614;2023-01-24T00:14:23;4.00;99.90
5278;DHT22;2662;51.194;6.614;2023-01-24T00:16:51;4.00;99.90
5278;DHT22;2662;51.194;6.614;2023-01-24T00:19:17;3.90;99.90
5278;DHT22;2662;51.194;6.614;2023-01-24T00:21:44;3.90;99.90
5278;DHT22;2662;51.194;6.614;2023-01-24T00:24:11;3.70;99.90
5278;DHT22;2662;51.194;6.614;2023-01-24T00:26:37;3.80;99.90
5278;DHT22;2662;51.194;6.614;2023-01-24T00:29:04;3.80;99.90
5278;DHT22;2662;51.194;6.614;2023-01-24T00:31:31;3.70;99.90
5278;DHT22;2662;51.194;6.614;2023-01-24T00:33:59;3.80;99.90
5278;DHT22;2662;51.194;6.614;2023-01-24T00:36:26;3.70;99.90
5278;DHT22;2662;51.194;6.614;2023-01-24T00:38:53;3.70;99.90
5278;DHT22;2662;51.194;6.614;2023-01-24T00:41:20;3.60;99.90
5278;DHT22;2662;51.194;6.614;2023-01-24T00:43:46;3.60;99.90
5278;DHT22;2662;51.194;6.614;2023-01-24T00:46:13;3.70;99.90
5278;DHT22;2662;51.194;6.614;2023-01-24T00:48:40;3.70;99.90
5278;DHT22;2662;51.194;6.614;2023-01-24T00:51:08;3.60;99.90
5278;DHT22;2662;51.194;6.614;2023-01-24T00:53:34;3.60;99.90
5278;DHT22;2662;51.194;6.614;2023-01-24T00:56:01;3.60;99.90
5278;DHT22;2662;51.194;6.614;2023-01-24T00:58:28;3.70;99.90
5278;DHT22;2662;51.194;6.614;2023-01-24T01:00:55;3.70;99.90
5278;DHT22;2662;51.194;6.614;2023-01-24T01:03:23;3.80;99.90
5278;DHT22;2662;51.194;6.614;2023-01-24T01:05:57;3.80;99.90
5278;DHT22;2662;51.194;6.614;2023-01-24T01:08:25;3.80;99.90
5278;DHT22;2662;51.194;6.614;2023-01-24T01:10:51;3.80;99.90
5278;DHT22;2662;51.194;6.614;2023-01-24T01:13:18;3.70;99.90
5278;DHT22;2662;51.194;6.614;2023-01-24T01:15:45;3.80;99.90
5278;DHT22;2662;51.194;6.614;2023-01-24T01:18:12;3.60;99.90
5278;DHT22;2662;51.194;6.614;2023-01-24T01:20:38;3.70;99.90
5278;DHT22;2662;51.194;6.614;2023-01-24T01:23:05;3.60;99.90
5278;DHT22;2662;51.194;6.614;2023-01-24T01:25:33;3.50;99.90
5278;DHT22;2662;51.194;6.614;2023-01-24T01:28:04;3.40;99.90
5278;DHT22;2662;51.194;6.614;2023-01-24T01:30:31;3.40;99.90
5278;DHT22;2662;51.194;6.614;2023-01-24T01:32:57;3.40;99.90
5278;DHT22;2662;51.194;6.614;2023-01-24T01:35:24;3.40;99.90
5278;DHT22;2662;51.194;6.614;2023-01-24T01:37:51;3.40;99.90
5278;DHT22;2662;51.194;6.614;2023-01-24T01:40:18;3.40;99.90
5278;DHT22;2662;51.194;6.614;2023-01-24T01:42:49;3.50;99.90
5278;DHT22;2662;51.194;6.614;2023-01-24T01:45:44;3.50;99.90
5278;DHT22;2662;51.194;6.614;2023-01-24T01:48:19;3.60;99.90
5278;DHT22;2662;51.194;6.614;2023-01-24T01:50:51;3.60;99.90
5278;DHT22;2662;51.194;6.614;2023-01-24T01:53:20;3.70;99.90
5278;DHT22;2662;51.194;6.614;2023-01-24T01:55:51;3.70;99.90
5278;DHT22;2662;51.194;6.614;2023-01-24T01:58:22;3.70;99.90
5278;DHT22;2662;51.194;6.614;2023-01-24T02:00:49;3.80;99.90
5278;DHT22;2662;51.194;6.614;2023-01-24T02:03:19;3.80;99.90
5278;DHT22;2662;51.194;6.614;2023-01-24T02:06:12;3.80;99.90
5278;DHT22;2662;51.194;6.614;2023-01-24T02:08:40;3.80;99.90
5278;DHT22;2662;51.194;6.614;2023-01-24T02:11:08;3.70;99.90
5278;DHT22;2662;51.194;6.614;2023-01-24T02:13:54;3.60;99.90
5278;DHT22;2662;51.194;6.614;2023-01-24T02:16:41;3.60;99.90
5278;DHT22;2662;51.194;6.614;2023-01-24T02:19:10;3.50;99.90
5278;DHT22;2662;51.194;6.614;2023-01-24T02:21:39;3.50;99.90
5278;DHT22;2662;51.194;6.614;2023-01-24T02:24:10;3.50;99.90
5278;DHT22;2662;51.194;6.614;2023-01-24T02:26:43;3.40;99.90
5278;DHT22;2662;51.194;6.614;2023-01-24T02:29:12;3.40;99.90
5278;DHT22;2662;51.194;6.614;2023-01-24T02:31:55;3.50;99.90
5278;DHT22;2662;51.194;6.614;2023-01-24T02:34:23;3.60;99.90
5278;DHT22;2662;51.194;6.614;2023-01-24T02:36:53;3.70;99.90
5278;DHT22;2662;51.194;6.614;2023-01-24T02:39:23;3.70;99.90
5278;DHT22;2662;51.194;6.614;2023-01-24T02:41:53;3.50;99.90
5278;DHT22;2662;51.194;6.614;2023-01-24T02:44:25;3.50;99.90
5278;DHT22;2662;51.194;6.614;2023-01-24T02:46:54;3.40;99.90
5278;DHT22;2662;51.194;6.614;2023-01-24T02:49:21;3.50;99.90
5278;DHT22;2662;51.194;6.614;2023-01-24T02:51:48;3.40;99.90
5278;DHT22;2662;51.194;6.614;2023-01-24T02:54:32;3.50;99.90
5278;DHT22;2662;51.194;6.614;2023-01-24T02:57:00;3.50;99.90
5278;DHT22;2662;51.194;6.614;2023-01-24T02:59:44;3.70;99.90
5278;DHT22;2662;51.194;6.614;2023-01-24T03:02:11;3.70;99.90
5278;DHT22;2662;51.194;6.614;2023-01-24T03:04:38;3.70;99.90
5278;DHT22;2662;51.194;6.614;2023-01-24T03:07:04;3.60;99.90
5278;DHT22;2662;51.194;6.614;2023-01-24T03:09:31;3.70;99.90
5278;DHT22;2662;51.194;6.614;2023-01-24T03:12:04;3.60;99.90
5278;DHT22;2662;51.194;6.614;2023-01-24T03:14:49;3.70;99.90
5278;DHT22;2662;51.194;6.614;2023-01-24T03:17:33;3.80;99.90
5278;DHT22;2662;51.194;6.614;2023-01-24T03:20:17;3.80;99.90
5278;DHT22;2662;51.194;6.614;2023-01-24T03:23:02;3.70;99.90
5278;DHT22;2662;51.194;6.614;2023-01-24T03:25:46;3.80;99.90
5278;DHT22;2662;51.194;6.614;2023-01-24T03:28:32;3.80;99.90
5278;DHT22;2662;51.194;6.614;2023-01-24T03:31:16;3.90;99.90
5278;DHT22;2662;51.194;6.614;2023-01-24T03:34:00;4.00;99.90
5278;DHT22;2662;51.194;6.614;2023-01-24T03:36:44;3.90;99.90
5278;DHT22;2662;51.194;6.614;2023-01-24T03:39:11;3.90;99.90
5278;DHT22;2662;51.194;6.614;2023-01-24T03:41:55;3.90;99.90
5278;DHT22;2662;51.194;6.614;2023-01-24T03:44:23;3.80;99.90
5278;DHT22;2662;51.194;6.614;2023-01-24T03:46:50;3.70;99.90
5278;DHT22;2662;51.194;6.614;2023-01-24T03:49:16;3.70;99.90
5278;DHT22;2662;51.194;6.614;2023-01-24T03:51:43;3.70;99.90
5278;DHT22;2662;51.194;6.614;2023-01-24T03:54:27;3.70;99.90
5278;DHT22;2662;51.194;6.614;2023-01-24T03:56:54;3.80;99.90
5278;DHT22;2662;51.194;6.614;2023-01-24T03:59:20;3.70;99.90
5278;DHT22;2662;51.194;6.614;2023-01-24T04:01:48;3.70;99.90
5278;DHT22;2662;51.194;6.614;2023-01-24T04:04:15;3.70;99.90
5278;DHT22;2662;51.194;6.614;2023-01-24T04:06:42;3.70;99.90
5278;DHT22;2662;51.194;6.614;2023-01-24T04:09:09;3.60;99.90
5278;DHT22;2662;51.194;6.614;2023-01-24T04:11:35;3.60;99.90
5278;DHT22;2662;51.194;6.614;2023-01-24T04:14:02;3.70;99.90
5278;DHT22;2662;51.194;6.614;2023-01-24T04:16:29;3.80;99.90
5278;DHT22;2662;51.194;6.614;2023-01-24T04:18:57;3.90;99.90
5278;DHT22;2662;51.194;6.614;2023-01-24T04:21:23;4.00;99.90
5278;DHT22;2662;51.194;6.614;2023-01-24T04:23:50;4.00;99.90
5278;DHT22;2662;51.194;6.614;2023-01-24T04:26:17;4.10;99.90
5278;DHT22;2662;51.194;6.614;2023-01-24T04:28:43;4.00;99.90
5278;DHT22;2662;51.194;6.614;2023-01-24T04:31:10;4.00;99.90
5278;DHT22;2662;51.194;6.614;2023-01-24T04:33:37;4.00;99.90
5278;DHT22;2662;51.194;6.614;2023-01-24T04:36:06;4.00;99.90
5278;DHT22;2662;51.194;6.614;2023-01-24T04:38:34;4.10;99.90
5278;DHT22;2662;51.194;6.614;2023-01-24T04:41:01;4.20;99.90
5278;DHT22;2662;51.194;6.614;2023-01-24T04:43:28;4.20;99.90
5278;DHT22;2662;51.194;6.614;2023-01-24T04:45:56;4.20;99.90
5278;DHT22;2662;51.194;6.614;2023-01-24T04:48:22;4.10;99.90
5278;DHT22;2662;51.194;6.614;2023-01-24T04:50:49;4.00;99.90
5278;DHT22;2662;51.194;6.614;2023-01-24T04:53:17;4.00;99.90
5278;DHT22;2662;51.194;6.614;2023-01-24T04:55:44;3.80;99.90
5278;DHT22;2662;51.194;6.614;2023-01-24T04:58:11;3.50;99.90
5278;DHT22;2662;51.194;6.614;2023-01-24T05:00:37;3.40;99.90
5278;DHT22;2662;51.194;6.614;2023-01-24T05:03:04;3.40;99.90
5278;DHT22;2662;51.194;6.614;2023-01-24T05:05:31;3.40;99.90
5278;DHT22;2662;51.194;6.614;2023-01-24T05:07:58;3.40;99.90
5278;DHT22;2662;51.194;6.614;2023-01-24T05:10:26;3.50;99.90
5278;DHT22;2662;51.194;6.614;2023-01-24T05:12:52;3.40;99.90
5278;DHT22;2662;51.194;6.614;2023-01-24T05:15:19;3.50;99.90
5278;DHT22;2662;51.194;6.614;2023-01-24T05:17:48;3.40;99.90
5278;DHT22;2662;51.194;6.614;2023-01-24T05:20:15;3.50;99.90
5278;DHT22;2662;51.194;6.614;2023-01-24T05:22:41;3.50;99.90
5278;DHT22;2662;51.194;6.614;2023-01-24T05:25:12;3.50;99.90
5278;DHT22;2662;51.194;6.614;2023-01-24T05:27:41;3.60;99.90
5278;DHT22;2662;51.194;6.614;2023-01-24T05:30:09;3.60;99.90
5278;DHT22;2662;51.194;6.614;2023-01-24T05:32:35;3.80;99.90
5278;DHT22;2662;51.194;6.614;2023-01-24T05:35:03;3.90;99.90
5278;DHT22;2662;51.194;6.614;2023-01-24T05:37:30;4.00;99.90
5278;DHT22;2662;51.194;6.614;2023-01-24T05:39:57;4.20;99.90
5278;DHT22;2662;51.194;6.614;2023-01-24T05:42:23;4.20;99.90
5278;DHT22;2662;51.194;6.614;2023-01-24T05:44:51;4.10;99.90
5278;DHT22;2662;51.194;6.614;2023-01-24T05:47:18;4.10;99.90
5278;DHT22;2662;51.194;6.614;2023-01-24T05:49:45;4.10;99.90
5278;DHT22;2662;51.194;6.614;2023-01-24T05:52:11;4.00;99.90
5278;DHT22;2662;51.194;6.614;2023-01-24T05:54:40;4.00;99.90
5278;DHT22;2662;51.194;6.614;2023-01-24T05:57:07;4.10;99.90
5278;DHT22;2662;51.194;6.614;2023-01-24T05:59:33;3.90;99.90
5278;DHT22;2662;51.194;6.614;2023-01-24T06:02:01;3.80;99.90
5278;DHT22;2662;51.194;6.614;2023-01-24T06:04:28;3.80;99.90
5278;DHT22;2662;51.194;6.614;2023-01-24T06:06:55;3.80;99.90
5278;DHT22;2662;51.194;6.614;2023-01-24T06:09:21;3.80;99.90
5278;DHT22;2662;51.194;6.614;2023-01-24T06:11:48;3.80;99.90
5278;DHT22;2662;51.194;6.614;2023-01-24T06:14:15;3.90;99.90
5278;DHT22;2662;51.194;6.614;2023-01-24T06:16:43;3.80;99.90
5278;DHT22;2662;51.194;6.614;2023-01-24T06:19:12;3.90;99.90
5278;DHT22;2662;51.194;6.614;2023-01-24T06:21:43;3.60;99.90
5278;DHT22;2662;51.194;6.614;2023-01-24T06:24:15;3.60;99.90
5278;DHT22;2662;51.194;6.614;2023-01-24T06:26:43;3.50;99.90
5278;DHT22;2662;51.194;6.614;2023-01-24T06:29:10;3.50;99.90
5278;DHT22;2662;51.194;6.614;2023-01-24T06:31:42;3.50;99.90
5278;DHT22;2662;51.194;6.614;2023-01-24T06:34:30;3.50;99.90
5278;DHT22;2662;51.194;6.614;2023-01-24T06:37:07;3.50;99.90
5278;DHT22;2662;51.194;6.614;2023-01-24T06:39:39;3.40;99.90
5278;DHT22;2662;51.194;6.614;2023-01-24T06:42:07;3.40;99.90
5278;DHT22;2662;51.194;6.614;2023-01-24T06:44:34;3.40;99.90
5278;DHT22;2662;51.194;6.614;2023-01-24T06:47:01;3.40;99.90
5278;DHT22;2662;51.194;6.614;2023-01-24T06:49:29;3.50;99.90
5278;DHT22;2662;51.194;6.614;2023-01-24T06:51:55;3.50;99.90
5278;DHT22;2662;51.194;6.614;2023-01-24T06:54:22;3.40;99.90
5278;DHT22;2662;51.194;6.614;2023-01-24T06:56:49;3.40;99.90
5278;DHT22;2662;51.194;6.614;2023-01-24T06:59:15;3.40;99.90
5278;DHT22;2662;51.194;6.614;2023-01-24T07:01:42;3.50;99.90
5278;DHT22;2662;51.194;6.614;2023-01-24T07:04:09;3.50;99.90
5278;DHT22;2662;51.194;6.614;2023-01-24T07:06:37;3.60;99.90
5278;DHT22;2662;51.194;6.614;2023-01-24T07:09:03;3.70;99.90
5278;DHT22;2662;51.194;6.614;2023-01-24T07:11:31;3.70;99.90
5278;DHT22;2662;51.194;6.614;2023-01-24T07:13:57;3.90;99.90
5278;DHT22;2662;51.194;6.614;2023-01-24T07:16:24;3.80;99.90
5278;DHT22;2662;51.194;6.614;2023-01-24T07:18:51;3.70;99.90
5278;DHT22;2662;51.194;6.614;2023-01-24T07:21:19;3.70;99.90
5278;DHT22;2662;51.194;6.614;2023-01-24T07:23:48;3.70;99.90
5278;DHT22;2662;51.194;6.614;2023-01-24T07:26:15;3.60;99.90
5278;DHT22;2662;51.194;6.614;2023-01-24T07:28:42;3.50;99.90
5278;DHT22;2662;51.194;6.614;2023-01-24T07:31:11;3.60;99.90
5278;DHT22;2662;51.194;6.614;2023-01-24T07:33:38;3.60;99.90
5278;DHT22;2662;51.194;6.614;2023-01-24T07:36:11;3.70;99.90
5278;DHT22;2662;51.194;6.614;2023-01-24T07:38:38;3.80;99.90
5278;DHT22;2662;51.194;6.614;2023-01-24T07:41:07;3.80;99.90
5278;DHT22;2662;51.194;6.614;2023-01-24T07:43:34;3.90;99.90
5278;DHT22;2662;51.194;6.614;2023-01-24T07:46:01;4.00;99.90
5278;DHT22;2662;51.194;6.614;2023-01-24T07:48:28;3.90;99.90
5278;DHT22;2662;51.194;6.614;2023-01-24T07:50:58;3.90;99.90
5278;DHT22;2662;51.194;6.614;2023-01-24T07:53:24;3.90;99.90
5278;DHT22;2662;51.194;6.614;2023-01-24T07:55:51;3.80;99.90
5278;DHT22;2662;51.194;6.614;2023-01-24T07:58:19;3.80;99.90
5278;DHT22;2662;51.194;6.614;2023-01-24T08:00:46;3.90;99.90
5278;DHT22;2662;51.194;6.614;2023-01-24T08:03:13;4.00;99.90
5278;DHT22;2662;51.194;6.614;2023-01-24T08:05:39;4.10;99.90
5278;DHT22;2662;51.194;6.614;2023-01-24T08:08:06;4.20;99.90
5278;DHT22;2662;51.194;6.614;2023-01-24T08:10:33;4.10;99.90
5278;DHT22;2662;51.194;6.614;2023-01-24T08:12:59;4.20;99.90
5278;DHT22;2662;51.194;6.614;2023-01-24T08:15:27;4.10;99.90
5278;DHT22;2662;51.194;6.614;2023-01-24T08:17:54;4.00;99.90
5278;DHT22;2662;51.194;6.614;2023-01-24T08:20:21;4.00;99.90
5278;DHT22;2662;51.194;6.614;2023-01-24T08:22:47;4.20;99.90
5278;DHT22;2662;51.194;6.614;2023-01-24T08:25:14;4.20;99.90
5278;DHT22;2662;51.194;6.614;2023-01-24T08:27:41;4.10;99.90
5278;DHT22;2662;51.194;6.614;2023-01-24T08:30:09;4.10;99.90
5278;DHT22;2662;51.194;6.614;2023-01-24T08:32:38;4.20;99.90
5278;DHT22;2662;51.194;6.614;2023-01-24T08:35:05;4.30;99.90
5278;DHT22;2662;51.194;6.614;2023-01-24T08:37:32;4.40;99.90
5278;DHT22;2662;51.194;6.614;2023-01-24T08:39:58;4.40;99.90
5278;DHT22;2662;51.194;6.614;2023-01-24T08:42:25;4.40;99.90
5278;DHT22;2662;51.194;6.614;2023-01-24T08:44:52;4.20;99.90
5278;DHT22;2662;51.194;6.614;2023-01-24T08:47:18;4.30;99.90
5278;DHT22;2662;51.194;6.614;2023-01-24T08:49:46;4.30;99.90
5278;DHT22;2662;51.194;6.614;2023-01-24T08:52:13;4.30;99.90
5278;DHT22;2662;51.194;6.614;2023-01-24T08:54:40;4.40;99.90
5278;DHT22;2662;51.194;6.614;2023-01-24T08:57:06;4.40;99.90
5278;DHT22;2662;51.194;6.614;2023-01-24T08:59:33;4.40;99.90
5278;DHT22;2662;51.194;6.614;2023-01-24T09:02:00;4.50;99.90
5278;DHT22;2662;51.194;6.614;2023-01-24T09:04:26;4.50;99.90
5278;DHT22;2662;51.194;6.614;2023-01-24T09:06:55;4.60;99.90
5278;DHT22;2662;51.194;6.614;2023-01-24T09:09:21;4.50;99.90
5278;DHT22;2662;51.194;6.614;2023-01-24T09:11:49;4.30;99.90
5278;DHT22;2662;51.194;6.614;2023-01-24T09:14:17;4.40;99.90
5278;DHT22;2662;51.194;6.614;2023-01-24T09:16:44;4.20;99.90
5278;DHT22;2662;51.194;6.614;2023-01-24T09:19:11;4.20;99.90
5278;DHT22;2662;51.194;6.614;2023-01-24T09:21:38;4.30;99.90
5278;DHT22;2662;51.194;6.614;2023-01-24T09:24:07;4.40;99.90
5278;DHT22;2662;51.194;6.614;2023-01-24T09:26:34;4.20;99.90
5278;DHT22;2662;51.194;6.614;2023-01-24T09:29:00;4.20;99.90
5278;DHT22;2662;51.194;6.614;2023-01-24T09:31:27;4.30;99.90
5278;DHT22;2662;51.194;6.614;2023-01-24T09:33:54;4.30;99.90
5278;DHT22;2662;51.194;6.614;2023-01-24T09:36:20;4.40;99.90
5278;DHT22;2662;51.194;6.614;2023-01-24T09:38:47;4.10;99.90
5278;DHT22;2662;51.194;6.614;2023-01-24T09:41:22;4.30;99.90
5278;DHT22;2662;51.194;6.614;2023-01-24T09:43:54;4.20;99.90
5278;DHT22;2662;51.194;6.614;2023-01-24T09:46:28;4.20;99.90
5278;DHT22;2662;51.194;6.614;2023-01-24T09:49:02;4.30;99.90
5278;DHT22;2662;51.194;6.614;2023-01-24T09:51:31;4.50;99.90
5278;DHT22;2662;51.194;6.614;2023-01-24T09:54:01;4.70;99.90
5278;DHT22;2662;51.194;6.614;2023-01-24T09:56:34;4.70;99.90
5278;DHT22;2662;51.194;6.614;2023-01-24T09:59:09;4.70;99.90
5278;DHT22;2662;51.194;6.614;2023-01-24T10:01:38;4.70;99.90
5278;DHT22;2662;51.194;6.614;2023-01-24T10:04:16;4.80;99.90
5278;DHT22;2662;51.194;6.614;2023-01-24T10:06:55;4.80;99.90
5278;DHT22;2662;51.194;6.614;2023-01-24T10:09:32;4.60;99.90
5278;DHT22;2662;51.194;6.614;2023-01-24T10:12:15;4.20;99.90
5278;DHT22;2662;51.194;6.614;2023-01-24T10:14:56;4.30;99.90
5278;DHT22;2662;51.194;6.614;2023-01-24T10:20:31;4.50;99.90
5278;DHT22;2662;51.194;6.614;2023-01-24T10:23:08;4.40;99.90
5278;DHT22;2662;51.194;6.614;2023-01-24T10:25:47;4.40;99.90
5278;DHT22;2662;51.194;6.614;2023-01-24T10:28:20;4.40;99.90
5278;DHT22;2662;51.194;6.614;2023-01-24T10:30:55;4.60;99.90
5278;DHT22;2662;51.194;6.614;2023-01-24T10:33:26;4.80;99.90
5278;DHT22;2662;51.194;6.614;2023-01-24T10:35:57;4.80;99.90
5278;DHT22;2662;51.194;6.614;2023-01-24T10:38:25;5.00;99.90
5278;DHT22;2662;51.194;6.614;2023-01-24T10:40:53;5.10;99.90
5278;DHT22;2662;51.194;6.614;2023-01-24T10:43:25;5.20;99.90
5278;DHT22;2662;51.194;6.614;2023-01-24T10:46:04;5.30;99.90
5278;DHT22;2662;51.194;6.614;2023-01-24T10:48:39;5.30;99.90
5278;DHT22;2662;51.194;6.614;2023-01-24T10:51:15;5.20;99.90
5278;DHT22;2662;51.194;6.614;2023-01-24T10:53:42;4.90;99.90
5278;DHT22;2662;51.194;6.614;2023-01-24T10:56:09;4.90;99.90
5278;DHT22;2662;51.194;6.614;2023-01-24T10:58:41;4.80;99.90
5278;DHT22;2662;51.194;6.614;2023-01-24T11:01:16;4.70;99.90
5278;DHT22;2662;51.194;6.614;2023-01-24T11:03:45;4.60;99.90
5278;DHT22;2662;51.194;6.614;2023-01-24T11:06:24;4.50;99.90
5278;DHT22;2662;51.194;6.614;2023-01-24T11:08:55;4.60;99.90
5278;DHT22;2662;51.194;6.614;2023-01-24T11:11:30;4.60;99.90
5278;DHT22;2662;51.194;6.614;2023-01-24T11:13:59;4.50;99.90
5278;DHT22;2662;51.194;6.614;2023-01-24T11:16:30;4.40;99.90
5278;DHT22;2662;51.194;6.614;2023-01-24T11:19:00;4.40;99.90
5278;DHT22;2662;51.194;6.614;2023-01-24T11:21:28;4.70;99.90
5278;DHT22;2662;51.194;6.614;2023-01-24T11:24:01;4.90;99.90
5278;DHT22;2662;51.194;6.614;2023-01-24T11:26:30;5.00;99.90
5278;DHT22;2662;51.194;6.614;2023-01-24T11:29:00;4.70;99.90
5278;DHT22;2662;51.194;6.614;2023-01-24T11:31:30;4.70;99.90
5278;DHT22;2662;51.194;6.614;2023-01-24T11:34:30;4.60;99.90
5278;DHT22;2662;51.194;6.614;2023-01-24T11:37:06;4.70;99.90
5278;DHT22;2662;51.194;6.614;2023-01-24T11:39:44;4.90;99.90
5278;DHT22;2662;51.194;6.614;2023-01-24T11:42:19;5.00;99.90
5278;DHT22;2662;51.194;6.614;2023-01-24T11:45:00;5.30;99.90
5278;DHT22;2662;51.194;6.614;2023-01-24T11:47:33;5.40;99.90
5278;DHT22;2662;51.194;6.614;2023-01-24T11:50:19;5.50;99.90
5278;DHT22;2662;51.194;6.614;2023-01-24T11:53:21;5.50;99.90
5278;DHT22;2662;51.194;6.614;2023-01-24T11:55:59;5.50;99.90
5278;DHT22;2662;51.194;6.614;2023-01-24T11:58:44;5.70;99.90
5278;DHT22;2662;51.194;6.614;2023-01-24T12:01:21;5.70;99.90
5278;DHT22;2662;51.194;6.614;2023-01-24T12:04:07;5.60;99.90
5278;DHT22;2662;51.194;6.614;2023-01-24T12:06:44;5.40;99.90
5278;DHT22;2662;51.194;6.614;2023-01-24T12:09:20;5.00;99.90
5278;DHT22;2662;51.194;6.614;2023-01-24T12:11:57;5.10;99.90
5278;DHT22;2662;51.194;6.614;2023-01-24T12:14:42;4.90;99.90
5278;DHT22;2662;51.194;6.614;2023-01-24T12:17:27;4.90;99.90
5278;DHT22;2662;51.194;6.614;2023-01-24T12:20:12;4.80;99.90
5278;DHT22;2662;51.194;6.614;2023-01-24T12:22:41;5.00;99.90
5278;DHT22;2662;51.194;6.614;2023-01-24T12:25:17;4.80;99.90
5278;DHT22;2662;51.194;6.614;2023-01-24T12:27:50;4.80;99.90
5278;DHT22;2662;51.194;6.614;2023-01-24T12:30:29;5.10;99.90
5278;DHT22;2662;51.194;6.614;2023-01-24T12:33:02;5.20;99.90
5278;DHT22;2662;51.194;6.614;2023-01-24T12:35:32;5.40;99.90
5278;DHT22;2662;51.194;6.614;2023-01-24T12:38:03;5.60;99.90
5278;DHT22;2662;51.194;6.614;2023-01-24T12:40:40;5.60;99.90
5278;DHT22;2662;51.194;6.614;2023-01-24T12:43:17;5.30;99.90
5278;DHT22;2662;51.194;6.614;2023-01-24T12:45:51;5.30;99.90
5278;DHT22;2662;51.194;6.614;2023-01-24T12:48:27;5.00;99.90
5278;DHT22;2662;51.194;6.614;2023-01-24T12:51:01;5.00;99.90
5278;DHT22;2662;51.194;6.614;2023-01-24T12:53:32;4.80;99.90
5278;DHT22;2662;51.194;6.614;2023-01-24T12:56:05;5.10;99.90
5278;DHT22;2662;51.194;6.614;2023-01-24T12:58:37;5.40;99.90
5278;DHT22;2662;51.194;6.614;2023-01-24T13:04:10;5.50;99.90
5278;DHT22;2662;51.194;6.614;2023-01-24T13:06:45;5.60;99.90
5278;DHT22;2662;51.194;6.614;2023-01-24T13:09:19;5.50;99.90
5278;DHT22;2662;51.194;6.614;2023-01-24T13:11:49;5.70;99.90
5278;DHT22;2662;51.194;6.614;2023-01-24T13:14:21;5.80;99.90
5278;DHT22;2662;51.194;6.614;2023-01-24T13:17:10;5.90;99.90
5278;DHT22;2662;51.194;6.614;2023-01-24T13:19:57;5.70;99.90
5278;DHT22;2662;51.194;6.614;2023-01-24T13:22:35;5.50;99.90
5278;DHT22;2662;51.194;6.614;2023-01-24T13:25:23;5.20;99.90
5278;DHT22;2662;51.194;6.614;2023-01-24T13:27:57;4.90;99.90
5278;DHT22;2662;51.194;6.614;2023-01-24T13:30:34;4.90;99.90
5278;DHT22;2662;51.194;6.614;2023-01-24T13:33:08;4.80;99.90
5278;DHT22;2662;51.194;6.614;2023-01-24T13:35:46;4.70;99.90
5278;DHT22;2662;51.194;6.614;2023-01-24T13:38:16;4.90;99.90
5278;DHT22;2662;51.194;6.614;2023-01-24T13:40:57;4.90;99.90
5278;DHT22;2662;51.194;6.614;2023-01-24T13:43:51;5.00;99.90
5278;DHT22;2662;51.194;6.614;2023-01-24T13:46:18;5.30;99.90
5278;DHT22;2662;51.194;6.614;2023-01-24T13:48:55;5.40;99.90
5278;DHT22;2662;51.194;6.614;2023-01-24T13:51:48;5.30;99.90
5278;DHT22;2662;51.194;6.614;2023-01-24T13:57:21;4.90;99.90
5278;DHT22;2662;51.194;6.614;2023-01-24T14:00:14;4.80;99.90
5278;DHT22;2662;51.194;6.614;2023-01-24T14:02:54;4.70;99.90
5278;DHT22;2662;51.194;6.614;2023-01-24T14:05:44;4.70;99.90
5278;DHT22;2662;51.194;6.614;2023-01-24T14:08:39;5.00;99.90
5278;DHT22;2662;51.194;6.614;2023-01-24T14:11:29;5.10;99.90
5278;DHT22;2662;51.194;6.614;2023-01-24T14:14:00;5.40;99.90
5278;DHT22;2662;51.194;6.614;2023-01-24T14:16:56;5.50;99.90
5278;DHT22;2662;51.194;6.614;2023-01-24T14:19:27;5.70;99.90
5278;DHT22;2662;51.194;6.614;2023-01-24T14:21:58;5.60;99.90
5278;DHT22;2662;51.194;6.614;2023-01-24T14:24:30;5.60;99.90
5278;DHT22;2662;51.194;6.614;2023-01-24T14:26:59;5.70;99.90
5278;DHT22;2662;51.194;6.614;2023-01-24T14:29:35;5.70;99.90
5278;DHT22;2662;51.194;6.614;2023-01-24T14:32:04;5.70;99.90
5278;DHT22;2662;51.194;6.614;2023-01-24T14:34:43;5.60;99.90
5278;DHT22;2662;51.194;6.614;2023-01-24T14:37:19;5.10;99.90
5278;DHT22;2662;51.194;6.614;2023-01-24T14:39:47;4.70;99.90
5278;DHT22;2662;51.194;6.614;2023-01-24T14:42:15;4.70;99.90
5278;DHT22;2662;51.194;6.614;2023-01-24T14:44:50;4.60;99.90
5278;DHT22;2662;51.194;6.614;2023-01-24T14:47:20;4.60;99.90
5278;DHT22;2662;51.194;6.614;2023-01-24T14:49:50;4.30;99.90
5278;DHT22;2662;51.194;6.614;2023-01-24T14:52:18;4.40;99.90
5278;DHT22;2662;51.194;6.614;2023-01-24T14:54:48;4.50;99.90
5278;DHT22;2662;51.194;6.614;2023-01-24T14:57:21;4.40;99.90
5278;DHT22;2662;51.194;6.614;2023-01-24T14:59:58;4.50;99.90
5278;DHT22;2662;51.194;6.614;2023-01-24T15:02:25;4.60;99.90
5278;DHT22;2662;51.194;6.614;2023-01-24T15:04:52;4.40;99.90
5278;DHT22;2662;51.194;6.614;2023-01-24T15:07:19;4.30;99.90
5278;DHT22;2662;51.194;6.614;2023-01-24T15:09:49;4.30;99.90
5278;DHT22;2662;51.194;6.614;2023-01-24T15:12:24;4.50;99.90
5278;DHT22;2662;51.194;6.614;2023-01-24T15:14:53;4.30;99.90
5278;DHT22;2662;51.194;6.614;2023-01-24T15:17:22;4.30;99.90
5278;DHT22;2662;51.194;6.614;2023-01-24T15:19:51;4.20;99.90
5278;DHT22;2662;51.194;6.614;2023-01-24T15:22:22;4.20;99.90
5278;DHT22;2662;51.194;6.614;2023-01-24T15:24:51;4.20;99.90
5278;DHT22;2662;51.194;6.614;2023-01-24T15:27:37;4.20;99.90
5278;DHT22;2662;51.194;6.614;2023-01-24T15:30:13;4.20;99.90
5278;DHT22;2662;51.194;6.614;2023-01-24T15:32:42;4.20;99.90
5278;DHT22;2662;51.194;6.614;2023-01-24T15:35:36;4.20;99.90
5278;DHT22;2662;51.194;6.614;2023-01-24T15:38:25;4.40;99.90
5278;DHT22;2662;51.194;6.614;2023-01-24T15:41:13;4.60;99.90
5278;DHT22;2662;51.194;6.614;2023-01-24T15:43:42;4.70;99.90
5278;DHT22;2662;51.194;6.614;2023-01-24T15:46:27;4.70;99.90
5278;DHT22;2662;51.194;6.614;2023-01-24T15:49:22;4.60;99.90
5278;DHT22;2662;51.194;6.614;2023-01-24T15:54:54;4.50;99.90
5278;DHT22;2662;51.194;6.614;2023-01-24T15:57:27;4.50;99.90
5278;DHT22;2662;51.194;6.614;2023-01-24T15:59:58;4.60;99.90
5278;DHT22;2662;51.194;6.614;2023-01-24T16:02:26;4.70;99.90
5278;DHT22;2662;51.194;6.614;2023-01-24T16:04:52;4.80;99.90
5278;DHT22;2662;51.194;6.614;2023-01-24T16:07:19;4.70;99.90
5278;DHT22;2662;51.194;6.614;2023-01-24T16:09:46;4.60;99.90
5278;DHT22;2662;51.194;6.614;2023-01-24T16:12:17;4.50;99.90
5278;DHT22;2662;51.194;6.614;2023-01-24T16:14:48;4.20;99.90
5278;DHT22;2662;51.194;6.614;2023-01-24T16:17:17;4.10;99.90
5278;DHT22;2662;51.194;6.614;2023-01-24T16:19:45;4.00;99.90
5278;DHT22;2662;51.194;6.614;2023-01-24T16:22:11;4.10;99.90
5278;DHT22;2662;51.194;6.614;2023-01-24T16:24:38;4.10;99.90
5278;DHT22;2662;51.194;6.614;2023-01-24T16:27:05;4.00;99.90
5278;DHT22;2662;51.194;6.614;2023-01-24T16:29:33;4.10;99.90
5278;DHT22;2662;51.194;6.614;2023-01-24T16:32:01;4.00;99.90
5278;DHT22;2662;51.194;6.614;2023-01-24T16:34:28;3.90;99.90
5278;DHT22;2662;51.194;6.614;2023-01-24T16:36:54;3.80;99.90
5278;DHT22;2662;51.194;6.614;2023-01-24T16:39:22;3.90;99.90
5278;DHT22;2662;51.194;6.614;2023-01-24T16:41:49;4.10;99.90
5278;DHT22;2662;51.194;6.614;2023-01-24T16:44:16;4.20;99.90
5278;DHT22;2662;51.194;6.614;2023-01-24T16:46:47;4.30;99.90
5278;DHT22;2662;51.194;6.614;2023-01-24T16:49:15;4.20;99.90
5278;DHT22;2662;51.194;6.614;2023-01-24T16:51:43;4.10;99.90
5278;DHT22;2662;51.194;6.614;2023-01-24T16:54:10;3.90;99.90
5278;DHT22;2662;51.194;6.614;2023-01-24T16:56:36;3.90;99.90